Westville, Florida
Current Conditions -  °F | °C
As of 9:58 AM on Wednesday 26 Nov 2014 (Local Time) from K1J0 Reporting Station
Clear Clear  
Wind Chill: 53°   Ceiling: Unl
Heat Index: 53°   Visibility: 10mi
Dew Point: 34°   Wind: 7mph
Humidity: 48%   Direction: NA
Pressure: 30.23"   Gusts: NA
Location:  30.77°N, 85.85°W
Report Text: K1J0 261558Z AUTO VRB06KT 10SM CLR 12/01 A3023 RMK AO2 SLP221 T01170011
Loading
Personal Weather Stations






























Interactive Weather Map New forecast layout! Learn more

10-Day Weather Forecast

Advertisements
Track Severe Weather on mobile